This is the latest recevied weather packets stored in our database for station/object SP9MUF-14. If no packets are shown the sender has not sent any weather packets the latest 10 day(s).
| Time | Temp. | Humidity | Pressure | Rain* | Wind** | Luminosity | Snow |
|---|---|---|---|---|---|---|---|
| 1778081328 | 21.67° C | 45% | 1005.6 hPa | 0 mm | - | 8 W/m² | - |
| 1778081024 | 22.78° C | 43% | 1005.6 hPa | 0 mm | - | 11 W/m² | - |
| 1778080416 | 25° C | 36% | 1004.9 hPa | 0 mm | - | 37 W/m² | - |
| 1778079808 | 25° C | 36% | 1004.9 hPa | 0 mm | - | 139 W/m² | - |
| 1778079504 | 25° C | 35% | 1004.9 hPa | 0 mm | - | 107 W/m² | - |
| 1778079201 | 25° C | 36% | 1005.1 hPa | 0 mm | - | 82 W/m² | - |
| 1778078897 | 25.56° C | 33% | 1005 hPa | 0 mm | - | 78 W/m² | - |
| 1778078593 | 26.67° C | 33% | 1004.9 hPa | 0 mm | - | 233 W/m² | - |
| 1778075857 | 25.56° C | 32% | 1005.1 hPa | 0 mm | - | 449 W/m² | - |
| 1778073424 | 25.56° C | 33% | 1005.2 hPa | 0 mm | - | 211 W/m² | - |
| 1778073120 | 25° C | 33% | 1005.5 hPa | 0 mm | - | 145 W/m² | - |
| 1778071296 | 25.56° C | 34% | 1005.3 hPa | 0 mm | - | 609 W/m² | - |
| 1778070992 | 25.56° C | 35% | 1005.6 hPa | 0 mm | - | 625 W/m² | - |
| 1778070688 | 26.67° C | 34% | 1005.6 hPa | 0 mm | - | 635 W/m² | - |
| 1778069776 | 23.89° C | 36% | 1006 hPa | 0 mm | - | 659 W/m² | - |
| 1778067648 | 23.89° C | 38% | 1006.2 hPa | 0 mm | - | 549 W/m² | - |
| 1778067040 | 23.89° C | 39% | 1006.2 hPa | 0 mm | - | 438 W/m² | - |
| 1778043023 | 15° C | 60% | 1006.3 hPa | 0 mm | - | 24 W/m² | - |
| 1778042719 | 15° C | 60% | 1006.2 hPa | 0 mm | - | 21 W/m² | - |
| 1778042110 | 13.89° C | 60% | 1006.2 hPa | 0 mm | - | 19 W/m² | - |
| 1778041807 | 15° C | 60% | 1006 hPa | 0 mm | - | 18 W/m² | - |
| 1778041199 | 15° C | 55% | 1006 hPa | 0 mm | - | 14 W/m² | - |
| 1778040895 | 15° C | 56% | 1005.9 hPa | 0 mm | - | 14 W/m² | - |
| 1778039678 | 15° C | 55% | 1005.9 hPa | 0 mm | - | 11 W/m² | - |
| 1778039375 | 15° C | 54% | 1005.9 hPa | 0 mm | - | 11 W/m² | - |
* Rain latest hour (hover to see other rain measurements)
** Current wind speed in m/s (hover to see current wind gust speed)